Sterling, Wisconsin
Current Conditions -  °F | °C
As of 12:34 PM on Saturday 25 Oct 2014 (Local Time) from KROS Reporting Station
Clear Clear  
Wind Chill: 60°   Ceiling: Unl
Heat Index: 60°   Visibility: 10mi
Dew Point: 29°   Wind: 14mph
Humidity: 31%   Direction: 290°WNW
Pressure: 30.01"   Gusts: 23mph
Location:  45.5664°N, 92.6511°W
Report Text: KROS 251734Z AUTO 29012G20KT 10SM CLR 16/M01 A3001 RMK AO2 T01571015
Loading
Personal Weather Stations






























Interactive Weather Map
Tropical Storm Tracking
New forecast layout! Learn more

10-Day Weather Forecast

Advertisements
Track Severe Weather on mobile